createdAt,value
2018-10-09T00:02:12.501Z,12.10
2018-10-09T00:04:41.049Z,11.90
2018-10-09T00:07:09.575Z,11.80
2018-10-09T00:09:38.154Z,11.70
2018-10-09T00:12:06.772Z,11.70
2018-10-09T00:14:36.088Z,11.70
2018-10-09T00:17:05.353Z,11.70
2018-10-09T00:19:35.063Z,11.80
2018-10-09T00:22:03.721Z,11.60
2018-10-09T00:24:33.172Z,11.70
2018-10-09T00:27:01.677Z,11.70
2018-10-09T00:29:30.917Z,11.80
2018-10-09T00:31:59.523Z,11.70
2018-10-09T00:34:28.145Z,11.70
2018-10-09T00:36:56.652Z,11.80
2018-10-09T00:39:25.868Z,11.70
2018-10-09T00:41:54.414Z,11.80
2018-10-09T00:44:22.949Z,11.80
2018-10-09T00:46:52.265Z,11.80
2018-10-09T00:49:20.807Z,11.90
2018-10-09T00:51:49.444Z,12.00
2018-10-09T00:54:17.908Z,11.90
2018-10-09T00:56:46.509Z,11.70
2018-10-09T00:59:15.132Z,11.70
2018-10-09T01:01:44.653Z,11.50
2018-10-09T01:04:13.934Z,11.50
2018-10-09T01:06:42.683Z,11.40
2018-10-09T01:09:11.766Z,11.20
2018-10-09T01:11:40.831Z,11.10
2018-10-09T01:14:09.268Z,11.10
2018-10-09T01:16:38.649Z,11.20
2018-10-09T01:19:07.500Z,11.30
2018-10-09T01:21:36.165Z,11.30
2018-10-09T01:24:04.673Z,11.20
2018-10-09T01:26:33.393Z,11.10
2018-10-09T01:29:02.149Z,11.10
2018-10-09T01:31:30.586Z,11.10
2018-10-09T01:33:59.168Z,11.10
2018-10-09T01:36:27.661Z,11.10
2018-10-09T01:38:57.069Z,11.10
2018-10-09T01:41:25.514Z,11.10
2018-10-09T01:43:54.117Z,11.20
2018-10-09T01:46:22.640Z,11.20
2018-10-09T01:48:51.412Z,11.30
2018-10-09T01:51:20.496Z,11.20
2018-10-09T01:53:48.952Z,11.20
2018-10-09T01:56:17.553Z,11.10
2018-10-09T01:58:47.507Z,11.10
2018-10-09T02:01:16.143Z,11.20
2018-10-09T02:03:44.710Z,11.20
2018-10-09T02:06:13.325Z,11.30
2018-10-09T02:08:41.863Z,11.30
2018-10-09T02:11:10.910Z,11.30
2018-10-09T02:13:39.624Z,11.20
2018-10-09T02:16:08.650Z,11.10
2018-10-09T02:18:37.197Z,11.10
2018-10-09T02:21:06.026Z,10.80
2018-10-09T02:23:34.511Z,10.60
2018-10-09T02:26:03.838Z,10.50
2018-10-09T02:28:32.869Z,10.40
2018-10-09T02:31:01.465Z,10.40
2018-10-09T02:33:29.974Z,10.30
2018-10-09T02:35:59.166Z,10.30
2018-10-09T02:38:27.757Z,10.30
2018-10-09T02:40:57.081Z,10.40
2018-10-09T02:43:25.694Z,10.50
2018-10-09T02:45:54.156Z,10.60
2018-10-09T02:48:22.807Z,10.70
2018-10-09T02:50:51.313Z,10.70
2018-10-09T02:53:19.925Z,10.70
2018-10-09T02:55:48.376Z,10.80
2018-10-09T02:58:16.942Z,10.80
2018-10-09T03:00:45.696Z,10.80
2018-10-09T03:03:14.804Z,10.70
2018-10-09T03:05:43.301Z,10.80
2018-10-09T03:08:11.979Z,10.80
2018-10-09T03:10:40.648Z,10.80
2018-10-09T03:13:10.238Z,10.80
2018-10-09T03:15:39.881Z,10.80
2018-10-09T03:18:08.720Z,10.80
2018-10-09T03:20:37.262Z,10.80
2018-10-09T03:23:06.592Z,10.60
2018-10-09T03:25:35.312Z,10.50
2018-10-09T03:28:03.842Z,10.40
2018-10-09T03:30:33.106Z,10.30
2018-10-09T03:33:01.578Z,10.10
2018-10-09T03:35:30.206Z,10.10
2018-10-09T03:37:58.706Z,10.10
2018-10-09T03:40:27.305Z,10.20
2018-10-09T03:42:55.768Z,10.30
2018-10-09T03:45:24.975Z,10.40
2018-10-09T03:47:53.618Z,10.30
2018-10-09T03:50:22.164Z,10.20
2018-10-09T03:52:51.023Z,10.00
2018-10-09T03:55:19.585Z,10.00
2018-10-09T03:57:48.119Z,10.00
2018-10-09T04:00:16.728Z,9.90
2018-10-09T04:02:45.204Z,10.00
2018-10-09T04:05:14.421Z,10.10
2018-10-09T04:07:43.129Z,10.20
2018-10-09T04:10:11.789Z,10.20
2018-10-09T04:12:40.927Z,10.00
2018-10-09T04:15:09.558Z,9.90
2018-10-09T04:17:38.624Z,9.80
2018-10-09T04:20:07.238Z,9.70
2018-10-09T04:22:35.729Z,9.70
2018-10-09T04:25:04.335Z,9.70
2018-10-09T04:27:32.804Z,9.70
2018-10-09T04:30:01.282Z,9.70
2018-10-09T04:32:29.869Z,9.70
2018-10-09T04:34:58.421Z,9.70
2018-10-09T04:37:27.003Z,9.80
2018-10-09T04:39:55.595Z,9.90
2018-10-09T04:42:24.458Z,10.10
2018-10-09T04:44:52.958Z,10.20
2018-10-09T04:47:21.437Z,10.20
2018-10-09T04:49:49.978Z,10.30
2018-10-09T04:52:18.501Z,10.40
2018-10-09T04:54:47.046Z,10.40
2018-10-09T04:57:15.502Z,10.50
2018-10-09T04:59:44.542Z,10.40
2018-10-09T05:02:13.007Z,10.50
2018-10-09T05:04:42.460Z,10.60
2018-10-09T05:07:11.025Z,10.70
2018-10-09T05:09:40.380Z,10.70
2018-10-09T05:12:08.923Z,10.80
2018-10-09T05:14:37.630Z,10.90
2018-10-09T05:17:06.297Z,10.90
2018-10-09T05:19:34.847Z,11.00
2018-10-09T05:22:03.539Z,11.00
2018-10-09T05:24:32.018Z,11.00
2018-10-09T05:27:00.563Z,11.00
2018-10-09T05:29:29.989Z,11.10
2018-10-09T05:31:58.544Z,11.10
2018-10-09T05:34:27.155Z,11.10
2018-10-09T05:36:56.248Z,11.10
2018-10-09T05:39:24.730Z,11.00
2018-10-09T05:41:53.289Z,11.00
2018-10-09T05:44:21.963Z,11.00
2018-10-09T05:46:50.900Z,11.10
2018-10-09T05:49:19.390Z,11.20
2018-10-09T05:51:47.871Z,11.30
2018-10-09T05:54:16.432Z,11.30
2018-10-09T05:56:45.025Z,11.40
2018-10-09T05:59:13.656Z,11.40
2018-10-09T06:01:42.846Z,11.40
2018-10-09T06:04:11.709Z,11.50
2018-10-09T06:06:40.323Z,11.60
2018-10-09T06:09:09.717Z,11.60
2018-10-09T06:11:39.426Z,11.60
2018-10-09T06:14:08.149Z,11.50
2018-10-09T06:16:36.689Z,11.50
2018-10-09T06:19:06.019Z,11.60
2018-10-09T06:21:34.507Z,11.70
2018-10-09T06:24:03.030Z,11.70
2018-10-09T06:26:31.559Z,11.80
2018-10-09T06:29:00.187Z,11.80
2018-10-09T06:31:29.262Z,11.90
2018-10-09T06:33:57.803Z,12.00
2018-10-09T06:36:26.225Z,12.10
2018-10-09T06:38:55.267Z,12.20
2018-10-09T06:41:23.704Z,12.30
2018-10-09T06:43:52.755Z,12.20
2018-10-09T06:46:21.394Z,12.30
2018-10-09T06:48:50.185Z,12.30
2018-10-09T06:51:18.682Z,12.40
2018-10-09T06:53:47.368Z,12.50
2018-10-09T06:56:16.209Z,12.50
2018-10-09T06:58:45.305Z,12.60
2018-10-09T07:01:13.793Z,12.60
2018-10-09T07:03:42.336Z,12.70
2018-10-09T07:06:12.506Z,12.60
2018-10-09T07:08:41.606Z,12.70
2018-10-09T07:11:10.864Z,12.70
2018-10-09T07:13:39.970Z,12.70
2018-10-09T07:16:08.650Z,12.80
2018-10-09T07:18:37.785Z,12.80
2018-10-09T07:21:06.499Z,12.80
2018-10-09T07:23:34.946Z,12.90
2018-10-09T07:26:03.395Z,12.90
2018-10-09T07:28:31.926Z,12.90
2018-10-09T07:31:00.410Z,12.80
2018-10-09T07:33:28.899Z,12.70
2018-10-09T07:35:57.493Z,12.50
2018-10-09T07:38:25.988Z,12.40
2018-10-09T07:40:54.536Z,12.40
2018-10-09T07:43:23.810Z,12.50
2018-10-09T07:45:52.382Z,12.50
2018-10-09T07:48:20.989Z,12.50
2018-10-09T07:50:49.504Z,12.70
2018-10-09T07:53:18.469Z,12.80
2018-10-09T07:55:47.442Z,12.80
2018-10-09T07:58:17.246Z,13.00
2018-10-09T08:00:45.874Z,13.00
2018-10-09T08:03:14.381Z,13.20
2018-10-09T08:05:42.883Z,13.20
2018-10-09T08:08:11.402Z,13.40
2018-10-09T08:10:39.984Z,13.90
2018-10-09T08:13:08.493Z,14.10
2018-10-09T08:15:37.847Z,14.40
2018-10-09T08:18:06.654Z,14.60
2018-10-09T08:20:35.126Z,14.70
2018-10-09T08:23:03.741Z,14.70
2018-10-09T08:25:32.242Z,14.90
2018-10-09T08:28:00.912Z,15.30
2018-10-09T08:30:29.509Z,15.60
2018-10-09T08:32:58.046Z,16.00
2018-10-09T08:35:26.620Z,16.20
2018-10-09T08:37:55.150Z,16.40
2018-10-09T08:40:23.684Z,16.70
2018-10-09T08:42:52.109Z,17.10
2018-10-09T08:45:21.289Z,17.40
2018-10-09T08:47:50.177Z,17.60
2018-10-09T08:50:18.728Z,17.70
2018-10-09T08:52:47.785Z,17.80
2018-10-09T08:55:17.125Z,18.00
2018-10-09T08:57:45.722Z,18.10
2018-10-09T09:00:14.227Z,17.40
2018-10-09T09:02:42.789Z,17.20
2018-10-09T09:05:11.267Z,17.60
2018-10-09T09:07:39.914Z,17.80
2018-10-09T09:10:08.434Z,17.90
2018-10-09T09:12:36.934Z,18.10
2018-10-09T09:15:05.562Z,18.10
2018-10-09T09:17:34.105Z,18.20
2018-10-09T09:20:02.676Z,18.30
2018-10-09T09:22:31.173Z,18.50
2018-10-09T09:24:59.838Z,18.80
2018-10-09T09:27:28.427Z,18.60
2018-10-09T09:29:56.889Z,19.10
2018-10-09T09:32:26.187Z,18.80
2018-10-09T09:34:54.753Z,18.80
2018-10-09T09:37:24.084Z,19.20
2018-10-09T09:39:52.644Z,19.50
2018-10-09T09:42:21.230Z,19.60
2018-10-09T09:44:49.781Z,19.80
2018-10-09T09:47:18.471Z,19.80
2018-10-09T09:49:47.204Z,19.90
2018-10-09T09:52:15.790Z,20.00
2018-10-09T09:54:44.263Z,20.10
2018-10-09T09:57:12.798Z,20.10
2018-10-09T09:59:42.070Z,20.30
2018-10-09T10:02:10.681Z,20.40
2018-10-09T10:04:39.998Z,20.00
2018-10-09T10:07:08.917Z,20.20
2018-10-09T10:09:37.603Z,20.50
2018-10-09T10:12:06.417Z,20.60
2018-10-09T10:14:34.928Z,20.80
2018-10-09T10:17:04.180Z,21.00
2018-10-09T10:19:32.848Z,21.10
2018-10-09T10:22:01.430Z,20.90
2018-10-09T10:24:29.961Z,20.80
2018-10-09T10:26:58.513Z,21.00
2018-10-09T10:29:27.007Z,21.00
2018-10-09T10:31:55.641Z,21.00
2018-10-09T10:34:24.979Z,21.20
2018-10-09T10:36:53.513Z,20.80
2018-10-09T10:39:22.149Z,20.60
2018-10-09T10:41:50.703Z,20.30
2018-10-09T10:44:19.979Z,20.40
2018-10-09T10:46:49.137Z,20.50
2018-10-09T10:49:18.772Z,21.00
2018-10-09T10:51:47.847Z,21.60
2018-10-09T10:54:17.072Z,22.00
2018-10-09T10:56:45.833Z,22.30
2018-10-09T10:59:14.540Z,22.60
2018-10-09T11:01:43.877Z,22.50
2018-10-09T11:04:13.083Z,22.60
2018-10-09T11:06:41.632Z,22.80
2018-10-09T11:09:10.911Z,22.80
2018-10-09T11:11:39.690Z,22.90
2018-10-09T11:14:08.212Z,22.80
2018-10-09T11:16:37.498Z,22.30
2018-10-09T11:19:06.077Z,22.50
2018-10-09T11:21:34.629Z,22.90
2018-10-09T11:24:03.410Z,23.00
2018-10-09T11:26:32.716Z,23.20
2018-10-09T11:29:01.243Z,23.50
2018-10-09T11:31:30.453Z,23.30
2018-10-09T11:33:59.008Z,23.10
2018-10-09T11:36:27.984Z,23.30
2018-10-09T11:38:57.166Z,23.50
2018-10-09T11:41:25.678Z,23.10
2018-10-09T11:43:54.257Z,23.10
2018-10-09T11:46:22.786Z,23.20
2018-10-09T11:48:52.014Z,22.50
2018-10-09T11:51:20.519Z,22.60
2018-10-09T11:53:48.987Z,23.20
2018-10-09T11:56:17.514Z,23.40
2018-10-09T11:58:46.218Z,23.60
2018-10-09T12:01:14.722Z,23.50
2018-10-09T12:03:44.191Z,23.70
2018-10-09T12:06:13.327Z,23.40
2018-10-09T12:08:41.845Z,23.60
2018-10-09T12:11:10.605Z,23.70
2018-10-09T12:13:39.292Z,23.80
2018-10-09T12:16:08.033Z,23.40
2018-10-09T12:18:36.576Z,23.70
2018-10-09T12:21:05.998Z,23.90
2018-10-09T12:23:34.782Z,23.60
2018-10-09T12:26:03.335Z,23.80
2018-10-09T12:28:32.749Z,23.50
2018-10-09T12:31:01.301Z,23.70
2018-10-09T12:33:30.614Z,23.80
2018-10-09T12:35:59.101Z,23.50
2018-10-09T12:38:27.764Z,23.30
2018-10-09T12:40:56.203Z,23.60
2018-10-09T12:43:24.760Z,23.70
2018-10-09T12:45:53.472Z,23.90
2018-10-09T12:48:22.554Z,24.10
2018-10-09T12:50:51.138Z,23.90
2018-10-09T12:53:19.808Z,24.00
2018-10-09T12:55:49.696Z,24.00
2018-10-09T12:58:19.915Z,24.00
2018-10-09T13:00:48.674Z,24.00
2018-10-09T13:03:18.315Z,23.60
2018-10-09T13:05:47.527Z,23.70
2018-10-09T13:08:16.025Z,24.00
2018-10-09T13:10:44.627Z,24.20
2018-10-09T13:13:13.422Z,24.00
2018-10-09T13:15:44.248Z,23.80
2018-10-09T13:18:20.045Z,23.60
2018-10-09T13:20:48.879Z,23.70
2018-10-09T13:23:19.151Z,23.90
2018-10-09T13:25:47.701Z,23.80
2018-10-09T13:28:16.421Z,23.60
2018-10-09T13:30:46.009Z,23.70
2018-10-09T13:33:19.378Z,23.80
2018-10-09T13:35:47.928Z,23.90
2018-10-09T13:38:16.580Z,23.70
2018-10-09T13:40:45.036Z,23.60
2018-10-09T13:43:13.651Z,23.70
2018-10-09T13:45:43.606Z,23.80
2018-10-09T13:48:12.394Z,23.80
2018-10-09T13:50:41.372Z,23.80
2018-10-09T13:53:10.040Z,23.70
2018-10-09T13:55:39.342Z,23.60
2018-10-09T13:58:07.867Z,23.80
2018-10-09T14:00:36.857Z,23.90
2018-10-09T14:03:05.682Z,23.80
2018-10-09T14:05:34.468Z,24.00
2018-10-09T14:08:02.965Z,24.10
2018-10-09T14:10:31.533Z,23.90
2018-10-09T14:13:01.332Z,23.80
2018-10-09T14:15:29.848Z,23.80
2018-10-09T14:17:58.509Z,23.90
2018-10-09T14:20:26.986Z,23.80
2018-10-09T14:22:58.029Z,23.90
2018-10-09T14:25:28.961Z,23.80
2018-10-09T14:27:57.525Z,23.70
2018-10-09T14:30:34.640Z,23.20
2018-10-09T14:33:03.357Z,23.10
2018-10-09T14:35:35.778Z,23.30
2018-10-09T14:38:04.563Z,23.30
2018-10-09T14:40:33.108Z,23.30
2018-10-09T14:43:01.731Z,23.30
2018-10-09T14:45:30.238Z,23.00
2018-10-09T14:47:58.703Z,22.80
2018-10-09T14:50:27.300Z,22.60
2018-10-09T14:52:55.783Z,22.50
2018-10-09T14:55:24.332Z,22.40
2018-10-09T14:57:53.671Z,22.50
2018-10-09T15:00:22.162Z,22.70
2018-10-09T15:02:50.830Z,22.40
2018-10-09T15:05:19.318Z,22.30
2018-10-09T15:07:47.853Z,22.20
2018-10-09T15:10:16.333Z,22.10
2018-10-09T15:12:45.314Z,22.10
2018-10-09T15:15:13.836Z,22.00
2018-10-09T15:17:42.365Z,21.90
2018-10-09T15:20:12.286Z,21.90
2018-10-09T15:22:40.780Z,21.80
2018-10-09T15:25:09.320Z,21.80
2018-10-09T15:27:37.838Z,21.70
2018-10-09T15:30:06.889Z,21.60
2018-10-09T15:32:35.373Z,21.50
2018-10-09T15:35:04.096Z,21.40
2018-10-09T15:37:32.613Z,21.30
2018-10-09T15:40:01.351Z,21.30
2018-10-09T15:42:29.869Z,21.20
2018-10-09T15:44:58.432Z,21.10
2018-10-09T15:47:27.436Z,21.10
2018-10-09T15:49:56.691Z,21.00
2018-10-09T15:52:25.247Z,21.00
2018-10-09T15:54:53.725Z,21.00
2018-10-09T15:57:22.219Z,20.90
2018-10-09T15:59:50.830Z,20.90
2018-10-09T16:02:20.106Z,20.80
2018-10-09T16:04:48.692Z,20.80
2018-10-09T16:07:17.269Z,20.80
2018-10-09T16:09:45.834Z,20.80
2018-10-09T16:12:14.434Z,20.80
2018-10-09T16:14:42.932Z,20.80
2018-10-09T16:17:11.441Z,20.90
2018-10-09T16:19:40.017Z,20.80
2018-10-09T16:22:08.631Z,20.70
2018-10-09T16:24:37.162Z,20.60
2018-10-09T16:27:05.737Z,20.60
2018-10-09T16:29:34.437Z,20.50
2018-10-09T16:32:02.922Z,20.50
2018-10-09T16:34:31.557Z,20.30
2018-10-09T16:37:00.102Z,20.30
2018-10-09T16:39:28.828Z,20.20
2018-10-09T16:41:57.401Z,20.20
2018-10-09T16:44:25.934Z,20.00
2018-10-09T16:46:55.138Z,19.90
2018-10-09T16:49:23.718Z,19.90
2018-10-09T16:51:52.211Z,19.80
2018-10-09T16:54:21.085Z,19.90
2018-10-09T16:56:49.629Z,19.80
2018-10-09T16:59:18.135Z,19.70
2018-10-09T17:01:48.062Z,19.60
2018-10-09T17:04:16.662Z,19.40
2018-10-09T17:06:45.285Z,19.30
2018-10-09T17:09:14.334Z,19.20
2018-10-09T17:11:43.640Z,19.20
2018-10-09T17:14:12.895Z,19.10
2018-10-09T17:16:41.556Z,19.00
2018-10-09T17:19:10.178Z,19.00
2018-10-09T17:21:38.750Z,18.90
2018-10-09T17:24:11.830Z,18.90
2018-10-09T17:26:40.489Z,18.80
2018-10-09T17:29:09.037Z,18.80
2018-10-09T17:31:37.775Z,18.70
2018-10-09T17:34:06.937Z,18.70
2018-10-09T17:36:36.620Z,18.60
2018-10-09T17:39:08.261Z,18.50
2018-10-09T17:41:36.974Z,18.50
2018-10-09T17:44:05.529Z,18.40
2018-10-09T17:46:34.308Z,18.30
2018-10-09T17:49:02.686Z,18.20
2018-10-09T17:51:31.456Z,17.90
2018-10-09T17:54:00.518Z,17.80
2018-10-09T17:56:29.020Z,17.70
2018-10-09T17:58:58.300Z,17.50
2018-10-09T18:01:26.975Z,17.40
2018-10-09T18:03:55.560Z,17.30
2018-10-09T18:06:24.215Z,17.30
2018-10-09T18:08:53.489Z,17.40
2018-10-09T18:11:22.096Z,17.20
2018-10-09T18:13:50.602Z,17.00
2018-10-09T18:16:19.901Z,17.00
2018-10-09T18:18:48.438Z,17.00
2018-10-09T18:21:17.005Z,16.80
2018-10-09T18:23:45.572Z,16.70
2018-10-09T18:26:14.720Z,16.50
2018-10-09T18:28:43.792Z,16.30
2018-10-09T18:31:12.401Z,16.30
2018-10-09T18:33:41.734Z,16.20
2018-10-09T18:36:11.090Z,16.40
2018-10-09T18:38:39.629Z,16.40
2018-10-09T18:41:08.401Z,16.40
2018-10-09T18:43:36.986Z,16.40
2018-10-09T18:46:05.581Z,16.40
2018-10-09T18:48:34.177Z,16.40
2018-10-09T18:51:02.842Z,16.50
2018-10-09T18:53:31.454Z,16.40
2018-10-09T18:56:00.826Z,16.30
2018-10-09T18:58:29.501Z,16.30
2018-10-09T19:00:58.091Z,16.10
2018-10-09T19:03:27.603Z,16.00
2018-10-09T19:05:56.163Z,15.90
2018-10-09T19:08:24.802Z,15.80
2018-10-09T19:10:54.258Z,15.70
2018-10-09T19:13:22.810Z,15.80
2018-10-09T19:15:51.453Z,15.80
2018-10-09T19:18:19.988Z,15.90
2018-10-09T19:20:48.545Z,16.00
2018-10-09T19:23:17.129Z,16.00
2018-10-09T19:25:45.697Z,16.00
2018-10-09T19:28:14.250Z,16.00
2018-10-09T19:30:42.762Z,15.90
2018-10-09T19:33:11.525Z,15.60
2018-10-09T19:35:40.760Z,15.50
2018-10-09T19:38:09.370Z,15.50
2018-10-09T19:40:37.946Z,15.30
2018-10-09T19:43:06.555Z,15.30
2018-10-09T19:45:35.651Z,15.20
2018-10-09T19:48:04.311Z,15.30
2018-10-09T19:50:33.708Z,15.10
2018-10-09T19:53:02.314Z,15.20
2018-10-09T19:55:30.795Z,15.20
2018-10-09T19:57:59.338Z,15.30
2018-10-09T20:00:28.736Z,15.30
2018-10-09T20:02:57.310Z,15.30
2018-10-09T20:05:25.789Z,15.30
2018-10-09T20:07:54.307Z,15.30
2018-10-09T20:10:22.938Z,15.30
2018-10-09T20:12:51.784Z,15.20
2018-10-09T20:15:20.437Z,15.10
2018-10-09T20:17:49.506Z,15.00
2018-10-09T20:20:18.177Z,14.90
2018-10-09T20:22:46.955Z,14.60
2018-10-09T20:25:15.479Z,14.50
2018-10-09T20:27:44.130Z,14.40
2018-10-09T20:30:12.644Z,14.30
2018-10-09T20:32:41.204Z,14.20
2018-10-09T20:35:09.781Z,14.10
2018-10-09T20:37:38.309Z,14.10
2018-10-09T20:40:06.990Z,14.20
2018-10-09T20:42:35.487Z,14.30
2018-10-09T20:45:04.136Z,14.30
2018-10-09T20:47:38.651Z,14.40
2018-10-09T20:50:07.318Z,14.40
2018-10-09T20:52:35.861Z,14.20
2018-10-09T20:55:05.253Z,14.00
2018-10-09T20:57:33.753Z,14.00
2018-10-09T21:00:02.319Z,13.90
2018-10-09T21:02:31.099Z,13.80
2018-10-09T21:05:00.265Z,13.70
2018-10-09T21:07:28.896Z,13.70
2018-10-09T21:09:57.417Z,13.70
2018-10-09T21:12:25.927Z,13.60
2018-10-09T21:14:55.402Z,13.60
2018-10-09T21:17:23.944Z,13.50
2018-10-09T21:19:52.478Z,13.60
2018-10-09T21:22:21.013Z,13.60
2018-10-09T21:24:49.600Z,13.60
2018-10-09T21:27:18.144Z,13.50
2018-10-09T21:29:46.816Z,13.50
2018-10-09T21:32:16.223Z,13.50
2018-10-09T21:34:44.835Z,13.40
2018-10-09T21:37:13.930Z,13.30
2018-10-09T21:39:42.919Z,13.20
2018-10-09T21:42:11.438Z,13.10
2018-10-09T21:44:40.008Z,13.10
2018-10-09T21:47:08.577Z,13.20
2018-10-09T21:49:37.097Z,13.30
2018-10-09T21:52:05.659Z,13.30
2018-10-09T21:54:34.204Z,13.30
2018-10-09T21:57:03.470Z,13.30
2018-10-09T21:59:32.157Z,13.20
2018-10-09T22:02:00.739Z,13.20
2018-10-09T22:04:29.438Z,13.30
2018-10-09T22:06:57.980Z,13.30
2018-10-09T22:09:26.837Z,13.30
2018-10-09T22:11:55.549Z,13.30
2018-10-09T22:14:24.083Z,13.20
2018-10-09T22:16:53.313Z,13.20
2018-10-09T22:19:21.921Z,13.20
2018-10-09T22:21:50.436Z,13.20
2018-10-09T22:24:26.469Z,13.20
2018-10-09T22:26:55.076Z,13.10
2018-10-09T22:29:23.658Z,13.10
2018-10-09T22:31:52.213Z,13.10
2018-10-09T22:34:20.978Z,13.10
2018-10-09T22:36:49.511Z,13.10
2018-10-09T22:39:18.109Z,13.00
2018-10-09T22:41:46.674Z,13.00
2018-10-09T22:44:15.224Z,13.00
2018-10-09T22:46:43.773Z,13.10
2018-10-09T22:49:12.454Z,13.10
2018-10-09T22:51:41.014Z,13.00
2018-10-09T22:54:09.540Z,12.90
2018-10-09T22:56:38.097Z,12.80
2018-10-09T22:59:06.575Z,12.60
2018-10-09T23:01:35.074Z,12.50
2018-10-09T23:04:03.591Z,12.60
2018-10-09T23:06:32.158Z,12.70
2018-10-09T23:09:00.664Z,12.70
2018-10-09T23:11:29.239Z,12.60
2018-10-09T23:13:57.717Z,12.50
2018-10-09T23:16:26.264Z,12.60
2018-10-09T23:18:54.761Z,12.60
2018-10-09T23:21:23.307Z,12.50
2018-10-09T23:23:52.808Z,12.40
2018-10-09T23:26:21.282Z,12.50
2018-10-09T23:28:49.906Z,12.50
2018-10-09T23:31:19.224Z,12.50
2018-10-09T23:33:48.310Z,12.50
2018-10-09T23:36:17.347Z,12.40
2018-10-09T23:38:45.910Z,12.30
2018-10-09T23:41:14.403Z,12.30
2018-10-09T23:43:42.870Z,12.10
2018-10-09T23:46:11.514Z,12.10
2018-10-09T23:48:40.007Z,12.20
2018-10-09T23:51:08.878Z,12.20
2018-10-09T23:53:37.478Z,12.10
2018-10-09T23:56:06.156Z,11.90
2018-10-09T23:58:34.814Z,12.00
